Terminal Aerodrome Forecast
Issued by NWS

Home | Current Version | Previous Version | Text Only | Print | Product List | Glossary On
Versions: 1 2 3 4 5 6 7 8 9 10 11 12 13 14 15 16 17
000
FTUS44 KMAF 192347
TAFPEQ
TAF
KPEQ 192347Z 2000/2024 25017G27KT P6SM SCT150
     FM200200 25011KT P6SM BKN250
     FM201600 25025G35KT P6SM BKN250=

USA.gov is the U.S. government's official web portal to all federal, state and local government web resources and services.